createdAt,value
2022-08-23T00:00:20.132Z,1.50
2022-08-23T00:03:49.867Z,1.40
2022-08-23T00:07:18.130Z,1.80
2022-08-23T00:10:45.966Z,1.10
2022-08-23T00:14:15.468Z,2.10
2022-08-23T00:17:44.121Z,1.30
2022-08-23T00:21:11.375Z,1.60
2022-08-23T00:24:40.988Z,1.20
2022-08-23T00:28:14.609Z,1.30
2022-08-23T00:31:42.164Z,1.50
2022-08-23T00:35:14.328Z,1.70
2022-08-23T00:38:53.597Z,1.90
2022-08-23T00:42:49.830Z,1.50
2022-08-23T00:46:42.164Z,2.00
2022-08-23T00:50:37.941Z,1.70
2022-08-23T00:54:17.128Z,1.70
2022-08-23T00:57:44.114Z,1.70
2022-08-23T01:01:15.453Z,1.50
2022-08-23T01:04:50.787Z,1.80
2022-08-23T01:08:17.859Z,2.10
2022-08-23T01:11:51.367Z,1.70
2022-08-23T01:15:24.161Z,1.50
2022-08-23T01:18:51.979Z,1.50
2022-08-23T01:22:22.494Z,1.70
2022-08-23T01:25:50.349Z,1.70
2022-08-23T01:29:17.641Z,1.80
2022-08-23T01:32:52.073Z,1.90
2022-08-23T01:36:20.197Z,1.50
2022-08-23T01:39:49.672Z,1.80
2022-08-23T01:43:20.097Z,1.70
2022-08-23T01:46:49.588Z,1.90
2022-08-23T01:50:22.572Z,2.10
2022-08-23T01:53:51.009Z,1.90
2022-08-23T01:57:18.832Z,1.90
2022-08-23T02:00:46.666Z,1.50
2022-08-23T02:04:15.028Z,1.90
2022-08-23T02:07:42.531Z,2.10
2022-08-23T02:11:13.992Z,1.30
2022-08-23T02:14:42.521Z,1.80
2022-08-23T02:18:20.896Z,1.40
2022-08-23T02:22:03.967Z,1.50
2022-08-23T02:25:34.454Z,2.00
2022-08-23T02:29:01.941Z,1.80
2022-08-23T02:32:32.105Z,1.30
2022-08-23T02:35:59.832Z,1.80
2022-08-23T02:39:27.501Z,1.70
2022-08-23T02:42:54.873Z,1.80
2022-08-23T02:46:23.359Z,1.60
2022-08-23T02:49:52.048Z,1.50
2022-08-23T02:53:19.721Z,1.40
2022-08-23T02:56:47.656Z,2.20
2022-08-23T03:00:18.452Z,1.50
2022-08-23T03:03:46.116Z,1.70
2022-08-23T03:07:14.112Z,1.50
2022-08-23T03:10:45.798Z,2.20
2022-08-23T03:14:13.245Z,2.00
2022-08-23T03:17:40.861Z,1.70
2022-08-23T03:21:12.548Z,1.50
2022-08-23T03:24:39.293Z,1.50
2022-08-23T03:28:09.362Z,2.10
2022-08-23T03:31:38.844Z,2.20
2022-08-23T03:35:15.077Z,1.60
2022-08-23T03:38:45.541Z,2.00
2022-08-23T03:42:12.632Z,1.70
2022-08-23T03:45:44.302Z,1.80
2022-08-23T03:49:14.906Z,1.50
2022-08-23T03:52:50.769Z,2.20
2022-08-23T03:56:27.566Z,1.80
2022-08-23T03:59:54.918Z,2.10
2022-08-23T04:03:21.953Z,1.80
2022-08-23T04:07:03.381Z,2.10
2022-08-23T04:10:31.599Z,2.20
2022-08-23T04:13:59.370Z,2.10
2022-08-23T04:17:26.753Z,2.20
2022-08-23T04:20:54.649Z,1.80
2022-08-23T04:24:24.812Z,1.80
2022-08-23T04:27:51.966Z,2.00
2022-08-23T04:31:23.745Z,2.80
2022-08-23T04:34:51.976Z,1.80
2022-08-23T04:38:25.206Z,2.30
2022-08-23T04:42:16.119Z,2.00
2022-08-23T04:45:45.627Z,2.10
2022-08-23T04:49:24.520Z,2.70
2022-08-23T04:52:52.642Z,2.00
2022-08-23T04:56:20.578Z,1.90
2022-08-23T04:59:47.651Z,1.90
2022-08-23T05:03:16.271Z,2.10
2022-08-23T05:06:46.029Z,2.40
2022-08-23T05:10:17.217Z,2.30
2022-08-23T05:13:48.355Z,2.50
2022-08-23T05:17:16.120Z,2.10
2022-08-23T05:20:44.049Z,2.30
2022-08-23T05:24:13.686Z,2.50
2022-08-23T05:27:43.443Z,2.90
2022-08-23T05:31:14.797Z,2.90
2022-08-23T05:34:47.142Z,2.60
2022-08-23T05:38:20.567Z,2.80
2022-08-23T05:41:48.753Z,3.70
2022-08-23T05:45:20.687Z,3.40
2022-08-23T05:48:52.438Z,3.70
2022-08-23T05:52:21.387Z,4.20
2022-08-23T05:55:48.697Z,4.60
2022-08-23T05:59:20.620Z,4.20
2022-08-23T06:02:47.800Z,4.30
2022-08-23T06:06:18.937Z,4.90
2022-08-23T06:09:47.123Z,5.00
2022-08-23T06:13:19.312Z,5.30
2022-08-23T06:16:51.592Z,5.30
2022-08-23T06:20:23.455Z,4.60
2022-08-23T06:24:17.133Z,4.90
2022-08-23T06:27:55.351Z,5.40
2022-08-23T06:31:44.465Z,5.60
2022-08-23T06:35:37.917Z,5.70
2022-08-23T06:39:13.156Z,5.40
2022-08-23T06:43:07.013Z,5.10
2022-08-23T06:47:00.318Z,5.30
2022-08-23T06:50:32.564Z,5.70
2022-08-23T06:54:21.880Z,5.90
2022-08-23T06:57:49.302Z,5.60
2022-08-23T07:01:47.197Z,5.50
2022-08-23T07:05:20.297Z,6.60
2022-08-23T07:09:08.613Z,5.90
2022-08-23T07:12:39.876Z,5.70
2022-08-23T07:16:07.911Z,6.70
2022-08-23T07:19:39.446Z,6.20
2022-08-23T07:23:09.334Z,6.10
2022-08-23T07:26:40.242Z,7.40
2022-08-23T07:30:10.339Z,8.20
2022-08-23T07:33:41.058Z,9.80
2022-08-23T07:37:15.667Z,9.30
2022-08-23T07:40:53.880Z,9.70
2022-08-23T07:44:27.170Z,8.60
2022-08-23T07:47:58.922Z,9.20
2022-08-23T07:51:28.483Z,8.90
2022-08-23T07:54:56.767Z,8.90
2022-08-23T07:58:59.338Z,7.60
2022-08-23T08:02:55.372Z,6.50
2022-08-23T08:06:34.254Z,7.20
2022-08-23T08:10:03.752Z,6.60
2022-08-23T08:13:32.822Z,6.30
2022-08-23T08:17:03.866Z,6.20
2022-08-23T08:20:53.370Z,6.70
2022-08-23T08:24:43.206Z,5.70
2022-08-23T08:28:15.902Z,6.10
2022-08-23T08:31:50.375Z,6.90
2022-08-23T08:35:22.690Z,7.40
2022-08-23T08:38:55.474Z,7.00
2022-08-23T08:42:55.886Z,6.60
2022-08-23T08:46:31.033Z,7.00
2022-08-23T08:50:04.738Z,6.80
2022-08-23T08:53:40.518Z,7.10
2022-08-23T08:57:15.237Z,7.10
2022-08-23T09:00:47.249Z,6.30
2022-08-23T09:04:17.629Z,6.80
2022-08-23T09:08:06.420Z,7.50
2022-08-23T09:11:54.444Z,8.40
2022-08-23T09:15:35.187Z,10.60
2022-08-23T09:19:03.753Z,10.50
2022-08-23T09:22:38.162Z,12.20
2022-08-23T09:26:24.671Z,11.00
2022-08-23T09:29:59.983Z,9.50
2022-08-23T09:33:43.246Z,9.60
2022-08-23T09:37:30.560Z,8.70
2022-08-23T09:41:02.306Z,9.60
2022-08-23T09:44:42.314Z,9.40
2022-08-23T09:48:17.330Z,9.20
2022-08-23T09:51:48.235Z,10.00
2022-08-23T09:55:35.488Z,10.70
2022-08-23T09:59:49.128Z,10.70
2022-08-23T10:03:26.325Z,10.90
2022-08-23T10:07:00.985Z,8.60
2022-08-23T10:10:33.955Z,7.50
2022-08-23T10:14:03.468Z,6.00
2022-08-23T10:17:43.052Z,6.10
2022-08-23T10:21:23.798Z,7.20
2022-08-23T10:25:05.565Z,7.10
2022-08-23T10:29:03.867Z,5.90
2022-08-23T10:32:48.417Z,5.80
2022-08-23T10:36:24.702Z,5.20
2022-08-23T10:40:04.150Z,5.60
2022-08-23T10:43:40.832Z,5.80
2022-08-23T10:47:31.347Z,5.60
2022-08-23T10:51:04.002Z,6.00
2022-08-23T10:54:46.285Z,5.90
2022-08-23T10:58:24.593Z,5.90
2022-08-23T11:02:01.515Z,6.00
2022-08-23T11:05:32.025Z,5.50
2022-08-23T11:09:08.442Z,6.00
2022-08-23T11:12:39.098Z,5.50
2022-08-23T11:16:15.235Z,5.80
2022-08-23T11:19:55.265Z,5.60
2022-08-23T11:23:45.155Z,6.10
2022-08-23T11:27:26.575Z,5.60
2022-08-23T11:31:00.692Z,5.70
2022-08-23T11:34:35.158Z,5.40
2022-08-23T11:38:08.630Z,5.60
2022-08-23T11:42:05.941Z,5.70
2022-08-23T11:45:47.005Z,5.30
2022-08-23T11:49:34.458Z,5.20
2022-08-23T11:53:27.866Z,5.90
2022-08-23T12:01:06.506Z,5.90
2022-08-23T12:04:40.281Z,5.10
2022-08-23T12:08:31.241Z,6.00
2022-08-23T12:12:15.801Z,5.60
2022-08-23T12:16:29.202Z,6.10
2022-08-23T12:20:00.339Z,5.70
2022-08-23T12:23:27.459Z,5.80
2022-08-23T12:27:05.013Z,6.10
2022-08-23T12:30:42.839Z,5.50
2022-08-23T12:34:23.566Z,5.50
2022-08-23T12:37:58.032Z,5.50
2022-08-23T12:41:28.002Z,5.60
2022-08-23T12:45:05.857Z,6.00
2022-08-23T12:48:48.104Z,5.70
2022-08-23T12:52:16.222Z,6.70
2022-08-23T12:55:47.540Z,6.50
2022-08-23T12:59:38.015Z,6.70
2022-08-23T13:03:08.674Z,6.40
2022-08-23T13:06:42.220Z,6.80
2022-08-23T13:10:12.517Z,6.40
2022-08-23T13:13:42.557Z,6.50
2022-08-23T13:17:22.675Z,6.00
2022-08-23T13:20:50.117Z,6.20
2022-08-23T13:24:39.111Z,6.00
2022-08-23T13:28:08.946Z,6.40
2022-08-23T13:31:53.169Z,5.40
2022-08-23T13:35:33.954Z,7.10
2022-08-23T13:39:08.300Z,7.30
2022-08-23T13:42:39.852Z,6.70
2022-08-23T13:46:21.783Z,6.30
2022-08-23T13:49:51.120Z,6.70
2022-08-23T13:53:18.962Z,6.60
2022-08-23T13:56:53.407Z,6.30
2022-08-23T14:00:22.932Z,6.50
2022-08-23T14:03:50.528Z,6.70
2022-08-23T14:07:18.070Z,6.20
2022-08-23T14:10:47.124Z,6.70
2022-08-23T14:14:14.267Z,6.70
2022-08-23T14:17:45.411Z,6.80
2022-08-23T14:21:12.578Z,6.80
2022-08-23T14:24:39.780Z,5.60
2022-08-23T14:28:07.144Z,5.80
2022-08-23T14:31:34.737Z,6.20
2022-08-23T14:35:02.090Z,6.20
2022-08-23T14:38:30.654Z,6.50
2022-08-23T14:41:57.626Z,7.70
2022-08-23T14:45:26.660Z,6.70
2022-08-23T14:48:55.953Z,6.40
2022-08-23T14:52:23.163Z,6.80
2022-08-23T14:56:12.236Z,6.60
2022-08-23T14:59:41.892Z,6.70
2022-08-23T15:03:12.450Z,6.10
2022-08-23T15:07:00.359Z,6.20
2022-08-23T15:10:50.557Z,6.60
2022-08-23T15:14:20.695Z,6.40
2022-08-23T15:17:54.146Z,5.90
2022-08-23T15:21:22.566Z,6.30
2022-08-23T15:24:50.442Z,6.80
2022-08-23T15:28:20.173Z,6.80
2022-08-23T15:31:47.663Z,6.60
2022-08-23T15:35:16.556Z,6.60
2022-08-23T15:38:45.352Z,7.50
2022-08-23T15:42:18.071Z,7.20
2022-08-23T15:45:48.532Z,7.20
2022-08-23T15:49:19.596Z,7.70
2022-08-23T15:52:46.885Z,7.70
2022-08-23T15:56:18.373Z,7.20
2022-08-23T15:59:45.935Z,7.80
2022-08-23T16:03:19.903Z,7.20
2022-08-23T16:06:55.638Z,8.20
2022-08-23T16:10:23.291Z,7.60
2022-08-23T16:13:55.225Z,7.90
2022-08-23T16:17:23.833Z,8.00
2022-08-23T16:20:54.304Z,8.50
2022-08-23T16:24:24.490Z,8.00
2022-08-23T16:27:52.203Z,8.70
2022-08-23T16:31:20.523Z,9.00
2022-08-23T16:34:49.713Z,8.50
2022-08-23T16:38:18.831Z,8.80
2022-08-23T16:41:46.438Z,8.50
2022-08-23T16:45:14.825Z,9.00
2022-08-23T16:48:42.056Z,8.60
2022-08-23T16:52:10.849Z,8.90
2022-08-23T16:55:39.398Z,8.20
2022-08-23T16:59:11.715Z,8.20
2022-08-23T17:02:41.211Z,7.40
2022-08-23T17:06:08.975Z,7.30
2022-08-23T17:09:36.295Z,5.90
2022-08-23T17:13:05.335Z,4.50
2022-08-23T17:16:32.867Z,3.80
2022-08-23T17:19:59.957Z,3.60
2022-08-23T17:23:27.722Z,3.70
2022-08-23T17:26:57.721Z,3.50
2022-08-23T17:30:26.988Z,3.40
2022-08-23T17:33:58.041Z,3.50
2022-08-23T17:37:25.717Z,3.70
2022-08-23T17:40:53.797Z,3.30
2022-08-23T17:44:21.894Z,3.90
2022-08-23T17:47:49.328Z,3.40
2022-08-23T17:51:16.133Z,3.70
2022-08-23T17:54:44.286Z,3.10
2022-08-23T17:58:13.740Z,3.80
2022-08-23T18:01:41.106Z,3.70
2022-08-23T18:05:10.883Z,3.40
2022-08-23T18:08:38.178Z,4.10
2022-08-23T18:12:06.908Z,3.70
2022-08-23T18:15:35.559Z,3.60
2022-08-23T18:19:10.814Z,3.70
2022-08-23T18:22:40.022Z,3.50
2022-08-23T18:26:33.872Z,3.50
2022-08-23T18:30:01.602Z,3.60
2022-08-23T18:33:32.343Z,3.60
2022-08-23T18:37:22.037Z,3.30
2022-08-23T18:40:52.798Z,4.00
2022-08-23T18:44:21.346Z,3.60
2022-08-23T18:47:50.501Z,3.70
2022-08-23T18:51:18.214Z,3.90
2022-08-23T18:54:47.344Z,4.10
2022-08-23T18:58:16.280Z,4.20
2022-08-23T19:01:45.643Z,4.30
2022-08-23T19:05:13.215Z,4.40
2022-08-23T19:08:40.748Z,4.10
2022-08-23T19:12:10.221Z,4.10
2022-08-23T19:15:40.556Z,4.50
2022-08-23T19:19:10.936Z,4.20
2022-08-23T19:22:39.178Z,4.40
2022-08-23T19:26:09.917Z,4.60
2022-08-23T19:29:41.046Z,3.90
2022-08-23T19:33:09.629Z,3.90
2022-08-23T19:36:48.291Z,4.20
2022-08-23T19:40:19.173Z,4.20
2022-08-23T19:43:55.989Z,3.60
2022-08-23T19:47:28.743Z,3.90
2022-08-23T19:51:00.256Z,4.20
2022-08-23T19:54:29.129Z,4.00
2022-08-23T19:58:00.113Z,4.10
2022-08-23T20:01:27.028Z,3.90
2022-08-23T20:04:55.058Z,4.20
2022-08-23T20:08:25.262Z,3.60
2022-08-23T20:11:55.356Z,3.80
2022-08-23T20:15:23.198Z,4.50
2022-08-23T20:18:53.096Z,4.10
2022-08-23T20:22:38.484Z,4.40
2022-08-23T20:26:06.590Z,3.80
2022-08-23T20:29:35.594Z,4.50
2022-08-23T20:33:05.272Z,4.90
2022-08-23T20:36:35.587Z,4.00
2022-08-23T20:40:07.839Z,4.60
2022-08-23T20:43:39.866Z,4.50
2022-08-23T20:47:07.889Z,4.60
2022-08-23T20:50:38.789Z,4.80
2022-08-23T20:54:12.324Z,5.10
2022-08-23T21:01:10.179Z,5.00
2022-08-23T21:04:40.291Z,4.90
2022-08-23T21:08:07.334Z,5.20
2022-08-23T21:11:40.496Z,4.90
2022-08-23T21:15:10.887Z,5.10
2022-08-23T21:18:39.177Z,5.20
2022-08-23T21:22:06.881Z,4.30
2022-08-23T21:25:35.012Z,5.00
2022-08-23T21:29:03.036Z,4.90
2022-08-23T21:32:32.637Z,5.00
2022-08-23T21:36:00.498Z,4.70
2022-08-23T21:39:28.991Z,4.50
2022-08-23T21:42:55.980Z,4.70
2022-08-23T21:46:25.851Z,4.70
2022-08-23T21:49:53.903Z,5.10
2022-08-23T21:53:21.488Z,4.70
2022-08-23T21:56:49.040Z,5.00
2022-08-23T22:00:18.353Z,4.80
2022-08-23T22:03:46.046Z,5.20
2022-08-23T22:07:14.571Z,4.80
2022-08-23T22:10:48.168Z,5.40
2022-08-23T22:14:31.487Z,5.10
2022-08-23T22:17:59.875Z,5.60
2022-08-23T22:21:27.727Z,5.60
2022-08-23T22:24:58.170Z,5.60
2022-08-23T22:28:25.780Z,5.50
2022-08-23T22:35:23.649Z,5.50
2022-08-23T22:38:52.125Z,5.30
2022-08-23T22:42:19.652Z,6.00
2022-08-23T22:45:55.848Z,6.60
2022-08-23T22:49:23.439Z,6.40
2022-08-23T22:52:54.173Z,7.20
2022-08-23T22:56:24.992Z,6.00
2022-08-23T22:59:55.168Z,6.80
2022-08-23T23:03:22.618Z,7.20
2022-08-23T23:06:50.906Z,6.80
2022-08-23T23:10:17.870Z,6.30
2022-08-23T23:13:45.420Z,6.30
2022-08-23T23:17:12.569Z,6.50
2022-08-23T23:20:40.473Z,7.30
2022-08-23T23:24:08.998Z,7.00
2022-08-23T23:27:35.950Z,6.80
2022-08-23T23:31:04.776Z,6.90
2022-08-23T23:34:32.148Z,7.00
2022-08-23T23:37:59.970Z,7.60
2022-08-23T23:41:27.715Z,6.60
2022-08-23T23:44:55.353Z,6.80
2022-08-23T23:48:22.175Z,7.00
2022-08-23T23:51:48.972Z,6.90
2022-08-23T23:55:18.771Z,7.30
2022-08-23T23:58:47.779Z,7.50
